Terminal Aerodrome Forecast
Issued by NWS

Home | Current Version | Previous Version | Text Only | Print | Product List | Glossary On
Versions: 1 2 3 4 5 6 7 8 9 10 11 12 13 14 15 16 17 18 19 20 21 22 23 24 25 26 27 28 29
163
FTUS45 KGGW 181728
TAFGDV
TAF
KGDV 181728Z 1818/1918 27010KT P6SM FEW200
     FM182000 28016G24KT P6SM FEW200
     FM190000 24011KT P6SM FEW200
     FM190200 19006KT P6SM BKN150
     FM191500 18008KT P6SM FEW200=

USA.gov is the U.S. government's official web portal to all federal, state and local government web resources and services.